Flight Track Log - Related Links

Times and Time Zones

All times are in EDT time to prevent confusion due to time zone crossing. See the DAL268 flight status page for this flight to view local times or setup timezone preferences in your user account.

Time Position Orientation Groundspeed Altitude Reporting Facility
EDT Latitude Longitude Course Direction KTS MPH feet Rate Location/Type
Sun 02:26:15 PM 37.6667 -122.3167 38° Northeast 199 229 2,700  Level Northern Cal TRACON
Sun 02:27:14 PM 37.7167 -122.2500 47° Northeast 247 284 5,100 2,684 Climbing Northern Cal TRACON
Sun 02:28:00 PM 37.8960 -122.0874 38° Northeast  Level FlightAware Approximate
Sun 02:28:09 PM 37.7667 -122.2000 38° Northeast 260 299 7,800  Level Northern Cal TRACON
Sun 02:29:00 PM 37.9879 -121.9794 35° Northeast  Level FlightAware Approximate
Sun 02:30:00 PM 38.0949 -121.8858 35° Northeast  Level FlightAware Approximate
Sun 02:30:21 PM 37.9092 -122.0669 36° Northeast 345 397 11,900  Level Oakland Center
Sun 02:31:00 PM 38.1980 -121.7854 38° Northeast  Level FlightAware Approximate
Sun 02:31:23 PM 37.9911 -121.9872 37° Northeast 369 425 14,100  Level Oakland Center
Sun 02:32:25 PM 38.0789 -121.9047 36° Northeast 388 447 16,100 1,887 Climbing Oakland Center
Sun 02:33:27 PM 38.1881 -121.8000 37° Northeast 406 467 18,000 1,984 Climbing Oakland Center
Sun 02:34:29 PM 38.2828 -121.7081 37° Northeast 423 487 20,200 2,177 Climbing Oakland Center
Sun 02:35:31 PM 38.3764 -121.6175 37° Northeast 425 489 22,500 1,887 Climbing Oakland Center
Sun 02:36:33 PM 38.4611 -121.5236 41° Northeast 426 490 24,100 1,171 Climbing Oakland Center
Sun 02:37:34 PM 38.5417 -121.3869 53° Northeast 456 525 24,900 878 Climbing Oakland Center
Sun 02:38:36 PM 38.6156 -121.2419 57° Northeast 475 547 25,900 1,065 Climbing Oakland Center
Sun 02:39:38 PM 38.6822 -121.0725 63° Northeast 500 575 27,100 1,258 Climbing Oakland Center
Sun 02:40:40 PM 38.7506 -120.9142 61° Northeast 508 585 28,500 1,597 Climbing Oakland Center
Sun 02:41:42 PM 38.8317 -120.7253 61° Northeast 504 580 30,400 1,548 Climbing Oakland Center
Sun 02:42:44 PM 38.8958 -120.5669 62° Northeast 501 577 31,700 1,306 Climbing Oakland Center
Sun 02:43:46 PM 38.9597 -120.4114 62° Northeast 494 568 33,100 1,268 Climbing Oakland Center
Sun 02:44:47 PM 39.0217 -120.2572 63° Northeast 488 562 34,300 927 Climbing Oakland Center
Sun 02:45:49 PM 39.0914 -120.0828 63° Northeast 488 562 35,000 339 Climbing Oakland Center
Sun 02:46:51 PM 39.1558 -119.9292 62° Northeast 488 562 35,000  Level Oakland Center
Sun 02:47:53 PM 39.2172 -119.7733 63° Northeast 487 560 35,000  Level Oakland Center
Sun 02:48:55 PM 39.2814 -119.6183 62° Northeast 490 564 35,000 49 Level Oakland Center
Sun 02:49:56 PM 39.3431 -119.4606 63° Northeast 491 565 35,100 293 Climbing Oakland Center
Sun 02:50:58 PM 39.4039 -119.3042 63° Northeast 487 560 35,600 484 Climbing Oakland Center
Sun 02:52:00 PM 39.4642 -119.1492 63° Northeast 483 556 36,100 484 Climbing Oakland Center
Sun 02:53:02 PM 39.5269 -118.9922 63° Northeast 484 557 36,600 439 Climbing Oakland Center
Sun 02:54:03 PM 39.5897 -118.8306 63° Northeast 491 565 37,000 195 Climbing Oakland Center
Sun 02:55:05 PM 39.6528 -118.6686 63° Northeast 494 568 37,000  Level Oakland Center
Sun 02:56:07 PM 39.7258 -118.4778 63° Northeast 489 563 37,000  Level Oakland Center
Sun 02:57:08 PM 39.7850 -118.3214 64° Northeast 484 557 37,000  Level Oakland Center
Sun 02:58:10 PM 39.8439 -118.1650 64° Northeast 481 554 37,000  Level Oakland Center
Sun 02:59:12 PM 39.9031 -118.0092 64° Northeast 481 554 37,000  Level Oakland Center
Sun 03:00:14 PM 39.9619 -117.8533 64° Northeast 480 552 37,000  Level Oakland Center
Sun 03:01:15 PM 40.0206 -117.6944 64° Northeast 484 557 37,000  Level Oakland Center
Sun 03:02:17 PM 40.0797 -117.5353 64° Northeast 486 559 37,000  Level Oakland Center
Sun 03:03:19 PM 40.1383 -117.3761 64° Northeast 486 559 37,000  Level Oakland Center
Sun 03:04:21 PM 40.2064 -117.1892 64° Northeast 490 564 37,000  Level Oakland Center
Sun 03:05:22 PM 40.2617 -117.0353 65° Northeast 490 564 37,000  Level Oakland Center
Sun 03:06:24 PM 40.3258 -116.8547 65° Northeast 496 571 37,000  Level Oakland Center
Sun 03:07:26 PM 40.3861 -116.6925 64° Northeast 495 570 37,000  Level Oakland Center
Sun 03:08:28 PM 40.4464 -116.5219 65° Northeast 502 578 37,000  Level Oakland Center
Sun 03:09:29 PM 40.5025 -116.3658 65° Northeast 495 570 37,000  Level Oakland Center
Sun 03:11:00 PM 40.5950 -116.1058 65° Northeast 492 566 37,000  Level Salt Lake Center
Sun 03:12:02 PM 40.6511 -115.9528 64° Northeast 488 562 37,000  Level Salt Lake Center
Sun 03:13:04 PM 40.7092 -115.7747 67° East 478 550 37,000  Level Salt Lake Center
Sun 03:14:06 PM 40.7625 -115.6228 65° Northeast 476 548 37,000  Level Salt Lake Center
Sun 03:15:08 PM 40.8233 -115.4475 65° Northeast 473 544 37,000  Level Salt Lake Center
Sun 03:16:10 PM 40.8747 -115.2956 66° East 473 544 37,000  Level Salt Lake Center
Sun 03:17:11 PM 40.9356 -115.1181 66° East 473 544 37,000  Level Salt Lake Center
Sun 03:18:13 PM 40.9886 -114.9650 65° Northeast 477 549 37,000  Level Salt Lake Center
Sun 03:19:15 PM 41.0414 -114.8153 65° Northeast 480 552 37,000  Level Salt Lake Center
Sun 03:20:17 PM 41.1044 -114.6214 67° East 480 552 37,000  Level Salt Lake Center
Sun 03:21:19 PM 41.1583 -114.4603 66° East 479 551 37,000  Level Salt Lake Center
Sun 03:22:21 PM 41.2106 -114.2989 67° East 478 550 37,000  Level Salt Lake Center
Sun 03:23:23 PM 41.2644 -114.1392 66° East 475 547 37,000  Level Salt Lake Center
Sun 03:24:25 PM 41.3175 -113.9789 66° East 475 547 37,000  Level Salt Lake Center
Sun 03:25:27 PM 41.3647 -113.8169 69° East 472 543 37,000  Level Salt Lake Center
Sun 03:26:29 PM 41.3786 -113.6386 84° East 482 555 37,000  Level Salt Lake Center
Sun 03:27:31 PM 41.3892 -113.4247 86° East 483 556 37,000  Level Salt Lake Center
Sun 03:28:32 PM 41.3997 -113.2483 85° East 479 551 37,000  Level Salt Lake Center
Sun 03:29:34 PM 41.4122 -113.0717 85° East 480 552 37,000  Level Salt Lake Center
Sun 03:30:36 PM 41.4239 -112.8931 85° East 483 556 37,000  Level Salt Lake Center
Sun 03:31:38 PM 41.4331 -112.7153 86° East 482 555 37,000  Level Salt Lake Center
Sun 03:32:40 PM 41.4433 -112.5375 86° East 482 555 37,000  Level Salt Lake Center
Sun 03:33:42 PM 41.4536 -112.3589 86° East 481 554 37,000  Level Salt Lake Center
Sun 03:34:44 PM 41.4658 -112.1431 86° East 484 557 37,000  Level Salt Lake Center
Sun 03:35:46 PM 41.4753 -111.9631 86° East 484 557 37,000  Level Salt Lake Center
Sun 03:36:48 PM 41.4844 -111.7828 86° East 484 557 37,000  Level Salt Lake Center
Sun 03:37:50 PM 41.4931 -111.6033 86° East 483 556 37,000  Level Salt Lake Center
Sun 03:38:51 PM 41.5014 -111.4253 86° East 480 552 37,000  Level Salt Lake Center
Sun 03:39:53 PM 41.5100 -111.2483 86° East 477 549 37,000  Level Salt Lake Center
Sun 03:40:55 PM 41.5169 -111.0700 87° East 480 552 37,000  Level Salt Lake Center
Sun 03:41:57 PM 41.5267 -110.8611 86° East 487 560 37,000  Level Salt Lake Center
Sun 03:42:59 PM 41.5339 -110.6883 87° East 489 563 37,000  Level Salt Lake Center
Sun 03:44:01 PM 41.5419 -110.4856 87° East 492 566 37,000  Level Salt Lake Center
Sun 03:45:02 PM 41.5483 -110.3108 87° East 492 566 37,000  Level Salt Lake Center
Sun 03:46:04 PM 41.5561 -110.1047 87° East 498 573 37,000  Level Salt Lake Center
Sun 03:47:06 PM 41.5622 -109.9253 87° East 504 580 37,000  Level Salt Lake Center
Sun 03:48:08 PM 41.5686 -109.7447 87° East 508 585 37,000  Level Salt Lake Center
Sun 03:49:10 PM 41.5753 -109.5344 88° East 506 582 37,000  Level Salt Lake Center
Sun 03:50:11 PM 41.5814 -109.3550 87° East 504 580 37,000  Level Salt Lake Center
Sun 03:51:13 PM 41.5878 -109.1450 88° East 500 575 37,000  Level Salt Lake Center
Sun 03:52:15 PM 41.5950 -108.9675 87° East 493 567 37,000  Level Salt Lake Center
Sun 03:53:17 PM 41.6075 -108.7961 84° East 483 556 37,000  Level Salt Lake Center
Sun 03:54:18 PM 41.6233 -108.5986 84° East 478 550 37,000  Level Salt Lake Center
Sun 03:55:20 PM 41.6339 -108.4303 85° East 476 548 37,000  Level Salt Lake Center
Sun 03:56:22 PM 41.6492 -108.2322 84° East 478 550 37,000  Level Salt Lake Center
Sun 03:57:24 PM 41.6625 -108.0600 84° East 485 558 37,000  Level Salt Lake Center
Sun 03:58:25 PM 41.6744 -107.8894 85° East 483 556 37,000  Level Salt Lake Center
Sun 03:59:25 PM 41.6878 -107.6853 85° East 489 563 37,000  Level Denver Center
Sun 04:00:27 PM 41.7000 -107.5103 85° East 492 566 37,000  Level Denver Center
Sun 04:01:29 PM 41.7119 -107.3317 85° East 500 575 37,000  Level Denver Center
Sun 04:02:31 PM 41.7247 -107.1236 85° East 503 579 37,000  Level Denver Center
Sun 04:03:33 PM 41.7361 -106.9456 85° East 503 579 37,000  Level Denver Center
Sun 04:04:35 PM 41.7481 -106.7369 86° East 504 580 37,000  Level Denver Center
Sun 04:05:37 PM 41.7575 -106.5572 86° East 506 582 37,000  Level Denver Center
Sun 04:06:39 PM 41.7711 -106.3375 85° East 511 588 37,000  Level Denver Center
Sun 04:07:41 PM 41.7808 -106.1569 86° East 510 587 37,000  Level Denver Center
Sun 04:08:43 PM 41.7906 -105.9758 86° East 511 588 37,000  Level Denver Center
Sun 04:09:45 PM 41.8022 -105.7661 86° East 507 583 37,000  Level Denver Center
Sun 04:10:47 PM 41.8083 -105.6133 87° East 512 589 37,000  Level Denver Center
Sun 04:11:49 PM 41.8203 -105.3686 86° East 518 596 37,000  Level Denver Center
Sun 04:12:51 PM 41.8278 -105.1864 87° East 515 593 37,000  Level Denver Center
Sun 04:13:53 PM 41.8386 -104.9747 86° East 512 589 37,000  Level Denver Center
Sun 04:14:55 PM 41.8456 -104.7933 87° East 511 588 37,000  Level Denver Center
Sun 04:15:57 PM 41.8539 -104.5853 87° East 505 581 37,000  Level Denver Center
Sun 04:17:00 PM 41.8611 -104.4031 87° East 512 589 37,000  Level Denver Center
Sun 04:18:01 PM 41.8686 -104.2200 87° East 516 594 37,000  Level Denver Center
Sun 04:19:04 PM 41.8764 -104.0053 87° East 519 597 37,000 96 Level Denver Center
Sun 04:20:06 PM 41.8836 -103.7908 87° East 517 595 37,200 532 Climbing Denver Center
Sun 04:21:08 PM 41.8894 -103.6089 87° East 513 590 38,100 677 Climbing Denver Center
Sun 04:22:10 PM 41.9031 -103.3958 85° East 515 593 38,600 435 Climbing Denver Center
Sun 04:23:12 PM 41.9319 -103.2094 78° East 527 606 39,000 194 Climbing Denver Center
Sun 04:24:14 PM 41.9619 -102.9939 79° East 527 606 39,000  Level Denver Center
Sun 04:25:16 PM 41.9867 -102.8103 80° East 525 604 39,000  Level Denver Center
Sun 04:26:18 PM 42.0164 -102.5922 80° East 530 610 39,000  Level Denver Center
Sun 04:27:20 PM 42.0411 -102.4028 80° East 536 617 39,000  Level Denver Center
Sun 04:28:34 PM 42.0703 -102.1939 79° East 532 612 39,000  Level Denver Center
Sun 04:29:36 PM 42.0986 -101.9747 80° East 530 610 39,000  Level Denver Center
Sun 04:30:39 PM 42.1267 -101.7564 80° East 528 608 39,000  Level Denver Center
Sun 04:31:41 PM 42.1528 -101.5397 81° East 523 602 39,000  Level Denver Center
Sun 04:32:43 PM 42.1764 -101.3542 80° East 524 603 39,000  Level Denver Center
Sun 04:33:45 PM 42.2022 -101.1361 81° East 525 604 39,000  Level Denver Center
Sun 04:34:47 PM 42.2219 -100.9806 80° East 526 605 39,000  Level Denver Center
Sun 04:35:49 PM 42.2500 -100.7336 81° East 523 602 39,000  Level Denver Center
Sun 04:36:51 PM 42.2717 -100.5478 81° East 523 602 39,000  Level Denver Center
Sun 04:37:54 PM 42.2967 -100.3297 81° East 524 603 39,000  Level Denver Center
Sun 04:38:56 PM 42.3172 -100.1433 81° East 524 603 39,000  Level Denver Center
Sun 04:39:58 PM 42.3381 -99.9569 81° East 524 603 39,000  Level Denver Center
Sun 04:41:00 PM 42.3617 -99.7369 82° East 529 609 39,000  Level Denver Center
Sun 04:42:02 PM 42.3814 -99.5619 81° East 525 604 39,000  Level Denver Center
Sun 04:43:04 PM 42.4061 -99.3267 82° East 524 603 39,000  Level Denver Center
Sun 04:44:06 PM 42.4253 -99.1311 82° East 524 603 39,000  Level Denver Center
Sun 04:45:08 PM 42.4456 -98.9356 82° East 523 602 39,000  Level Denver Center
Sun 04:46:10 PM 42.4647 -98.7400 82° East 523 602 39,000  Level Denver Center
Sun 04:47:40 PM 42.4842 -98.4275 85° East 523 602 39,000  Level Minneapolis Center
Sun 04:48:42 PM 42.4933 -98.2303 86° East 523 602 39,000  Level Minneapolis Center
Sun 04:49:45 PM 42.5031 -98.0331 86° East 525 604 39,000  Level Minneapolis Center
Sun 04:50:47 PM 42.5117 -97.8364 87° East 523 602 39,000  Level Minneapolis Center
Sun 04:51:49 PM 42.5200 -97.6486 86° East 522 601 39,000  Level Minneapolis Center
Sun 04:52:51 PM 42.5278 -97.4528 87° East 522 601 39,000  Level Minneapolis Center
Sun 04:53:53 PM 42.5375 -97.2144 87° East 525 604 39,000  Level Minneapolis Center
Sun 04:54:55 PM 42.5481 -97.0183 86° East 524 603 39,000  Level Minneapolis Center
Sun 04:55:57 PM 42.5586 -96.8200 86° East 524 603 39,000  Level Minneapolis Center
Sun 04:56:59 PM 42.5681 -96.6206 86° East 528 608 39,000  Level Minneapolis Center
Sun 04:58:01 PM 42.5772 -96.4242 86° East 523 602 39,000  Level Minneapolis Center
Sun 04:59:03 PM 42.5858 -96.2278 87° East 522 601 39,000  Level Minneapolis Center
Sun 05:00:05 PM 42.5939 -96.0319 87° East 519 597 39,000  Level Minneapolis Center
Sun 05:01:07 PM 42.6039 -95.7964 87° East 519 597 39,000  Level Minneapolis Center
Sun 05:02:09 PM 42.6117 -95.6014 87° East 517 595 39,000  Level Minneapolis Center
Sun 05:03:11 PM 42.6186 -95.4075 87° East 515 593 39,000  Level Minneapolis Center
Sun 05:04:14 PM 42.6253 -95.2139 87° East 513 590 39,000  Level Minneapolis Center
Sun 05:05:16 PM 42.6325 -95.0217 87° East 510 587 39,000  Level Minneapolis Center
Sun 05:06:18 PM 42.6383 -94.8286 88° East 511 588 39,000  Level Minneapolis Center
Sun 05:07:20 PM 42.6456 -94.5975 87° East 510 587 39,000  Level Minneapolis Center
Sun 05:08:22 PM 42.6489 -94.4208 88° East 512 589 39,000  Level Minneapolis Center
Sun 05:09:24 PM 42.6539 -94.2306 88° East 512 589 39,000  Level Minneapolis Center
Sun 05:10:26 PM 42.6600 -94.0422 87° East 506 582 39,000  Level Minneapolis Center
Sun 05:11:28 PM 42.6647 -93.8133 88° East 509 586 39,000  Level Minneapolis Center
Sun 05:12:30 PM 42.6703 -93.6228 88° East 509 586 39,000  Level Minneapolis Center
Sun 05:13:32 PM 42.6731 -93.4317 89° East 510 587 39,000  Level Minneapolis Center
Sun 05:14:34 PM 42.6772 -93.2414 88° East 510 587 39,000  Level Minneapolis Center
Sun 05:15:36 PM 42.6806 -93.0136 89° East 509 586 39,000  Level Minneapolis Center
Sun 05:16:11 PM 42.6825 -92.9358 88° East 510 587 39,000  Level Chicago Center
Sun 05:17:13 PM 42.6822 -92.7083 90° East 508 585 39,000  Level Chicago Center
Sun 05:18:15 PM 42.6844 -92.5175 89° East 508 585 39,000  Level Chicago Center
Sun 05:19:17 PM 42.6892 -92.3272 88° East 508 585 39,000  Level Chicago Center
Sun 05:20:19 PM 42.6908 -92.1367 89° East 511 588 39,000  Level Chicago Center
Sun 05:21:21 PM 42.6925 -91.9478 89° East 508 585 39,000  Level Chicago Center
Sun 05:22:23 PM 42.6925 -91.7247 90° East 506 582 39,000  Level Chicago Center
Sun 05:23:25 PM 42.6933 -91.5300 90° East 503 579 39,000  Level Chicago Center
Sun 05:24:28 PM 42.6950 -91.3133 89° East 529 609 39,000  Level Chicago Center
Sun 05:25:30 PM 42.6944 -91.1281 90° East 506 582 39,000  Level Chicago Center
Sun 05:26:32 PM 42.6950 -90.9392 90° East 508 585 39,000  Level Chicago Center
Sun 05:27:34 PM 42.6936 -90.7492 91° East 508 585 39,000  Level Chicago Center
Sun 05:28:36 PM 42.6939 -90.5583 90° East 510 587 39,000  Level Chicago Center
Sun 05:29:38 PM 42.6906 -90.3300 91° East 509 586 39,000  Level Chicago Center
Sun 05:30:40 PM 42.6906 -90.1394 90° East 508 585 39,000  Level Chicago Center
Sun 05:31:42 PM 42.6875 -89.9478 91° East 509 586 39,000  Level Chicago Center
Sun 05:32:44 PM 42.6850 -89.7250 91° East 513 590 39,000  Level Chicago Center
Sun 05:33:46 PM 42.6819 -89.5328 91° East 511 588 39,000  Level Chicago Center
Sun 05:34:49 PM 42.6800 -89.3425 91° East 508 585 39,000  Level Chicago Center
Sun 05:35:51 PM 42.6761 -89.1494 92° East 512 589 39,000  Level Chicago Center
Sun 05:36:53 PM 42.6719 -88.9550 92° East 515 593 39,000  Level Chicago Center
Sun 05:37:55 PM 42.6672 -88.7231 92° East 517 595 39,000  Level Chicago Center
Sun 05:38:57 PM 42.6631 -88.5269 92° East 522 601 39,000  Level Chicago Center
Sun 05:39:59 PM 42.6600 -88.3342 91° East 516 594 39,000  Level Chicago Center
Sun 05:41:01 PM 42.6544 -88.1411 92° East 515 593 39,000  Level Chicago Center
Sun 05:42:03 PM 42.6486 -87.9483 92° East 516 594 39,000  Level Chicago Center
Sun 05:43:05 PM 42.6425 -87.7186 92° East 511 588 39,000  Level Chicago Center
Sun 05:44:07 PM 42.6367 -87.5258 92° East 513 590 39,000  Level Chicago Center
Sun 05:45:10 PM 42.6306 -87.3406 93° East 513 590 39,000  Level Chicago Center
Sun 05:46:12 PM 42.6231 -87.1481 93° East 513 590 39,000  Level Chicago Center
Sun 05:47:14 PM 42.6169 -86.9550 92° East 514 592 39,000  Level Chicago Center
Sun 05:48:16 PM 42.6078 -86.7233 93° East 515 593 39,000  Level Chicago Center
Sun 05:49:18 PM 42.6000 -86.5314 93° East 514 592 39,000  Level Chicago Center
Sun 05:50:20 PM 42.5911 -86.3419 94° East 510 587 39,000  Level Chicago Center
Sun 05:51:22 PM 42.5828 -86.1497 93° East 514 592 39,000  Level Chicago Center
Sun 05:52:24 PM 42.5739 -85.9572 94° East 516 594 39,000  Level Chicago Center
Sun 05:53:26 PM 42.5642 -85.7267 93° East 518 596 39,000  Level Chicago Center
Sun 05:54:28 PM 42.5547 -85.5333 94° East 519 597 39,000  Level Chicago Center
Sun 05:55:30 PM 42.5456 -85.3406 94° East 518 596 39,000  Level Chicago Center
Sun 05:56:33 PM 42.5356 -85.1506 94° East 511 588 39,000  Level Chicago Center
Sun 05:57:35 PM 42.5261 -84.9628 94° East 504 580 39,000  Level Chicago Center
Sun 05:58:37 PM 42.5133 -84.7372 94° East 502 578 39,000  Level Chicago Center
Sun 05:59:39 PM 42.5028 -84.5481 94° East 506 582 39,000  Level Chicago Center
Sun 06:00:41 PM 42.4906 -84.3592 95° East 506 582 39,000  Level Chicago Center
Sun 06:01:14 PM 42.4847 -84.2642 95° East 506 582 39,000  Level Cleveland Center
Sun 06:02:16 PM 42.4728 -84.0731 95° East 508 585 39,000  Level Cleveland Center
Sun 06:03:18 PM 42.4578 -83.8450 95° East 508 585 39,000  Level Cleveland Center
Sun 06:04:20 PM 42.4458 -83.6564 95° East 500 575 39,000  Level Cleveland Center
Sun 06:05:22 PM 42.4331 -83.4644 95° East 501 577 39,000  Level Cleveland Center
Sun 06:06:24 PM 42.4206 -83.2897 95° East 498 573 39,000  Level Cleveland Center
Sun 06:07:26 PM 42.4061 -83.0861 95° East 497 572 39,000  Level Cleveland Center
Sun 06:08:29 PM 42.3917 -82.9017 96° East 495 570 39,000  Level Cleveland Center
Sun 06:09:31 PM 42.3792 -82.7214 95° East 486 559 39,000  Level Cleveland Center
Sun 06:10:33 PM 42.3697 -82.5419 94° East 480 552 39,000  Level Cleveland Center
Sun 06:11:35 PM 42.3631 -82.3258 92° East 482 555 39,000  Level Cleveland Center
Sun 06:12:37 PM 42.3561 -82.1447 93° East 483 556 39,000  Level Cleveland Center
Sun 06:13:39 PM 42.3486 -81.9722 93° East 484 557 39,000  Level Cleveland Center
Sun 06:14:41 PM 42.3397 -81.7892 94° East 483 556 39,000  Level Cleveland Center
Sun 06:15:43 PM 42.3311 -81.6061 94° East 483 556 39,000  Level Cleveland Center
Sun 06:16:45 PM 42.3208 -81.3961 94° East 477 549 39,000  Level Cleveland Center
Sun 06:17:47 PM 42.3125 -81.2178 94° East 473 544 39,000  Level Cleveland Center
Sun 06:18:49 PM 42.3033 -81.0389 94° East 473 544 39,000  Level Cleveland Center
Sun 06:19:51 PM 42.2939 -80.8614 94° East 470 541 39,000  Level Cleveland Center
Sun 06:20:53 PM 42.2836 -80.6833 94° East 471 542 39,000  Level Cleveland Center
Sun 06:21:55 PM 42.2753 -80.5081 94° East 467 537 39,000  Level Cleveland Center
Sun 06:22:58 PM 42.2650 -80.3308 94° East 469 540 39,000  Level Cleveland Center
Sun 06:24:00 PM 42.2531 -80.1233 94° East 471 542 39,000  Level Cleveland Center
Sun 06:25:02 PM 42.2422 -79.9439 95° East 474 545 39,000  Level Cleveland Center
Sun 06:26:04 PM 42.2306 -79.7686 95° East 473 544 39,000  Level Cleveland Center
Sun 06:27:06 PM 42.2194 -79.5922 95° East 474 545 39,000  Level Cleveland Center
Sun 06:28:08 PM 42.2078 -79.4150 95° East 476 548 39,000  Level Cleveland Center
Sun 06:29:10 PM 42.1958 -79.2361 95° East 481 554 39,000  Level Cleveland Center
Sun 06:30:12 PM 42.1658 -79.0231 101° East 485 558 39,000  Level Cleveland Center
Sun 06:31:14 PM 42.1217 -78.8536 109° East 483 556 39,000  Level Cleveland Center
Sun 06:32:16 PM 42.0783 -78.6814 109° East 485 558 39,000  Level Cleveland Center
Sun 06:33:18 PM 42.0331 -78.5036 109° East 498 573 39,000  Level Cleveland Center
Sun 06:34:20 PM 41.9861 -78.3222 109° East 510 587 39,000  Level Cleveland Center
Sun 06:35:22 PM 41.9381 -78.1297 108° East 514 592 39,000  Level Cleveland Center
Sun 06:36:24 PM 41.8836 -77.9225 109° East 516 594 39,000  Level Cleveland Center
Sun 06:37:26 PM 41.8358 -77.7408 109° East 518 596 39,000  Level Cleveland Center
Sun 06:38:28 PM 41.7883 -77.5597 109° East 517 595 39,000  Level Cleveland Center
Sun 06:39:31 PM 41.7386 -77.3725 110° East 516 594 39,000  Level Cleveland Center
Sun 06:40:33 PM 41.6897 -77.1911 110° East 519 597 39,000  Level Cleveland Center
Sun 06:41:35 PM 41.6414 -77.0122 110° East 516 594 39,000  Level Cleveland Center
Sun 06:42:37 PM 41.5844 -76.8050 110° East 513 590 39,000  Level Cleveland Center
Sun 06:43:39 PM 41.5358 -76.6256 110° East 515 593 39,000 -48 Level Cleveland Center
Sun 06:44:41 PM 41.4858 -76.4475 110° East 517 595 38,900 -1,065 Descending Cleveland Center
Sun 06:45:43 PM 41.4372 -76.2719 110° East 515 593 36,800 -2,613 Descending Cleveland Center
Sun 06:46:45 PM 41.3772 -76.0583 110° East 515 593 33,500 -3,072 Descending Cleveland Center
Sun 06:47:48 PM 41.3222 -75.8761 112° Southeast 506 582 30,400 -2,634 Descending New York Center
Sun 06:48:48 PM 41.2753 -75.7042 110° East 500 575 28,100 -2,250 Descending New York Center
Sun 06:49:48 PM 41.2217 -75.5347 113° Southeast 500 575 25,900 -2,150 Descending New York Center
Sun 06:50:48 PM 41.1694 -75.3822 114° Southeast 476 548 23,800 -1,800 Descending New York Center
Sun 06:51:48 PM 41.1156 -75.2161 113° Southeast 476 548 22,300 -1,450 Descending New York Center
Sun 06:52:48 PM 41.0686 -75.0753 114° Southeast 471 542 20,900 -1,450 Descending New York Center
Sun 06:53:48 PM 41.0136 -74.9206 115° Southeast 466 536 19,400 -950 Descending New York Center
Sun 06:54:48 PM 40.9825 -74.7400 103° East 458 527 19,000 -200 Descending New York Center
Sun 06:55:48 PM 40.9647 -74.5769 98° East 448 516 19,000  Level New York Center
Sun 06:56:48 PM 40.9486 -74.4278 98° East 453 521 19,000  Level New York Center
Sun 06:57:18 PM 40.9333 -74.3333 102° East 455 524 19,000  Level New York TRACON
Sun 06:58:18 PM 40.9000 -74.1667 105° East 450 518 19,000 -150 Level New York TRACON
Sun 06:59:18 PM 40.8500 -74.0333 116° Southeast 379 436 18,700 -842 Descending New York TRACON
Sun 07:00:12 PM 40.8167 -73.9333 114° Southeast 359 413 17,400 -1,500 Descending New York TRACON
Sun 07:01:18 PM 40.7667 -73.8000 116° Southeast 359 413 15,700 -1,524 Descending New York TRACON
Sun 07:02:18 PM 40.7500 -73.6667 99° East 367 422 14,200 -1,350 Descending New York TRACON
Sun 07:03:18 PM 40.7500 -73.5500 90° East 338 389 13,000 -1,050 Descending New York TRACON
Sun 07:04:18 PM 40.7167 -73.4333 111° Southeast 337 388 12,100 -1,200 Descending New York TRACON
Sun 07:05:18 PM 40.6333 -73.4333 180° South 297 342 10,600 -1,500 Descending New York TRACON
Sun 07:06:18 PM 40.5667 -73.4667 201° Southwest 287 330 9,100 -1,650 Descending New York TRACON
Sun 07:07:18 PM 40.5000 -73.5167 210° Southwest 285 328 7,300 -1,800 Descending New York TRACON
Sun 07:08:18 PM 40.4167 -73.5500 197° South 281 323 5,500 -1,500 Descending New York TRACON
Sun 07:09:18 PM 40.3500 -73.5833 201° Southwest 268 308 4,300 -1,000 Descending New York TRACON
Sun 07:09:48 PM 40.3278 -73.6025 213° Southwest 271 312 4,000 -600 Descending New York Center
Sun 07:10:18 PM 40.3000 -73.6333 220° Southwest 234 269 3,700 -933 Descending New York TRACON
Sun 07:11:18 PM 40.3167 -73.7000 288° West 200 230 2,600 -850 Descending New York TRACON
Sun 07:12:18 PM 40.3500 -73.7667 303° West 199 229 2,000 -300 Descending New York TRACON
Sun 07:13:18 PM 40.3667 -73.8333 288° West 199 229 2,000  Level New York TRACON
Sun 07:14:18 PM 40.4000 -73.8833 311° West 185 213 2,000  Level New York TRACON
Sun 07:15:18 PM 40.4333 -73.8833 360° North 166 191 2,000  Level New York TRACON
Sun 07:16:24 PM 40.5000 -73.8667 11° North 166 191 2,000  Level New York TRACON
Sun 07:17:24 PM 40.5333 -73.8500 21° North 167 192 2,000 -350 Level New York TRACON
Sun 07:18:24 PM 40.5667 -73.8167 37° Northeast 165 190 1,300 -750 Descending New York TRACON
Sun 07:19:24 PM 40.6000 -73.7833 37° Northeast 130 150 500 -800 Descending New York TRACON

Login

Don't have an account? Register now (free) for customized features, flight alerts, and more!